sensor_id;sensor_type;location;lat;lon;timestamp;P1;durP1;ratioP1;P2;durP2;ratioP2
74741;SDS011;76291;48.288;16.314;2024-02-23T00:00:02;10.3;;;7.9;;
74741;SDS011;76291;48.288;16.314;2024-02-23T00:01:00;10.3;;;7.9;;
74741;SDS011;76291;48.288;16.314;2024-02-23T00:02:01;10.3;;;7.9;;
74741;SDS011;76291;48.288;16.314;2024-02-23T00:03:01;10.3;;;7.9;;
74741;SDS011;76291;48.288;16.314;2024-02-23T00:04:01;10.3;;;7.9;;
74741;SDS011;76291;48.288;16.314;2024-02-23T00:05:00;9.8;;;7.8;;
74741;SDS011;76291;48.288;16.314;2024-02-23T00:06:01;9.8;;;7.8;;
74741;SDS011;76291;48.288;16.314;2024-02-23T00:07:00;9.8;;;7.8;;
74741;SDS011;76291;48.288;16.314;2024-02-23T00:08:01;9.8;;;7.8;;
74741;SDS011;76291;48.288;16.314;2024-02-23T00:09:01;9.8;;;7.8;;
74741;SDS011;76291;48.288;16.314;2024-02-23T00:10:01;10.4;;;8.0;;
74741;SDS011;76291;48.288;16.314;2024-02-23T00:11:01;10.4;;;8.0;;
74741;SDS011;76291;48.288;16.314;2024-02-23T00:12:01;10.4;;;8.0;;
74741;SDS011;76291;48.288;16.314;2024-02-23T00:13:01;10.4;;;8.0;;
74741;SDS011;76291;48.288;16.314;2024-02-23T00:14:00;10.4;;;8.0;;
74741;SDS011;76291;48.288;16.314;2024-02-23T00:15:01;9.3;;;7.6;;
74741;SDS011;76291;48.288;16.314;2024-02-23T00:16:01;9.3;;;7.6;;
74741;SDS011;76291;48.288;16.314;2024-02-23T00:17:01;9.3;;;7.6;;
74741;SDS011;76291;48.288;16.314;2024-02-23T00:18:01;9.3;;;7.6;;
74741;SDS011;76291;48.288;16.314;2024-02-23T00:19:01;9.3;;;7.6;;
74741;SDS011;76291;48.288;16.314;2024-02-23T00:20:04;9.4;;;7.2;;
74741;SDS011;76291;48.288;16.314;2024-02-23T00:21:01;9.4;;;7.2;;
74741;SDS011;76291;48.288;16.314;2024-02-23T00:22:03;9.4;;;7.2;;
74741;SDS011;76291;48.288;16.314;2024-02-23T00:23:01;9.4;;;7.2;;
74741;SDS011;76291;48.288;16.314;2024-02-23T00:24:01;9.4;;;7.2;;
74741;SDS011;76291;48.288;16.314;2024-02-23T00:25:01;11.8;;;7.5;;
74741;SDS011;76291;48.288;16.314;2024-02-23T00:26:01;11.8;;;7.5;;
74741;SDS011;76291;48.288;16.314;2024-02-23T00:27:00;11.8;;;7.5;;
74741;SDS011;76291;48.288;16.314;2024-02-23T00:28:00;11.8;;;7.5;;
74741;SDS011;76291;48.288;16.314;2024-02-23T00:29:02;11.8;;;7.5;;
74741;SDS011;76291;48.288;16.314;2024-02-23T00:30:00;10.4;;;6.6;;
74741;SDS011;76291;48.288;16.314;2024-02-23T00:31:00;10.4;;;6.6;;
74741;SDS011;76291;48.288;16.314;2024-02-23T00:32:00;10.4;;;6.6;;
74741;SDS011;76291;48.288;16.314;2024-02-23T00:33:00;10.4;;;6.6;;
74741;SDS011;76291;48.288;16.314;2024-02-23T00:34:00;10.4;;;6.6;;
74741;SDS011;76291;48.288;16.314;2024-02-23T00:35:00;7.1;;;6.0;;
74741;SDS011;76291;48.288;16.314;2024-02-23T00:36:00;7.1;;;6.0;;
74741;SDS011;76291;48.288;16.314;2024-02-23T00:37:00;7.1;;;6.0;;
74741;SDS011;76291;48.288;16.314;2024-02-23T00:38:00;7.1;;;6.0;;
74741;SDS011;76291;48.288;16.314;2024-02-23T00:39:00;7.1;;;6.0;;
74741;SDS011;76291;48.288;16.314;2024-02-23T00:40:02;8.4;;;6.1;;
74741;SDS011;76291;48.288;16.314;2024-02-23T00:41:00;8.4;;;6.1;;
74741;SDS011;76291;48.288;16.314;2024-02-23T00:42:00;8.4;;;6.1;;
74741;SDS011;76291;48.288;16.314;2024-02-23T00:43:01;8.4;;;6.1;;
74741;SDS011;76291;48.288;16.314;2024-02-23T00:44:00;8.4;;;6.1;;
74741;SDS011;76291;48.288;16.314;2024-02-23T00:45:00;9.1;;;6.9;;
74741;SDS011;76291;48.288;16.314;2024-02-23T00:46:00;9.1;;;6.9;;
74741;SDS011;76291;48.288;16.314;2024-02-23T00:47:00;9.1;;;6.9;;
74741;SDS011;76291;48.288;16.314;2024-02-23T00:48:00;9.1;;;6.9;;
74741;SDS011;76291;48.288;16.314;2024-02-23T00:49:00;9.1;;;6.9;;
74741;SDS011;76291;48.288;16.314;2024-02-23T00:50:00;7.8;;;6.1;;
74741;SDS011;76291;48.288;16.314;2024-02-23T00:51:02;7.8;;;6.1;;
74741;SDS011;76291;48.288;16.314;2024-02-23T00:52:00;7.8;;;6.1;;
74741;SDS011;76291;48.288;16.314;2024-02-23T00:53:00;7.8;;;6.1;;
74741;SDS011;76291;48.288;16.314;2024-02-23T00:54:00;7.8;;;6.1;;
74741;SDS011;76291;48.288;16.314;2024-02-23T00:55:00;9.5;;;6.2;;
74741;SDS011;76291;48.288;16.314;2024-02-23T00:56:00;9.5;;;6.2;;
74741;SDS011;76291;48.288;16.314;2024-02-23T00:57:00;9.5;;;6.2;;
74741;SDS011;76291;48.288;16.314;2024-02-23T00:58:00;9.5;;;6.2;;
74741;SDS011;76291;48.288;16.314;2024-02-23T00:59:00;9.5;;;6.2;;
74741;SDS011;76291;48.288;16.314;2024-02-23T01:00:00;10.9;;;8.7;;
74741;SDS011;76291;48.288;16.314;2024-02-23T01:01:00;10.9;;;8.7;;
74741;SDS011;76291;48.288;16.314;2024-02-23T01:02:00;10.9;;;8.7;;
74741;SDS011;76291;48.288;16.314;2024-02-23T01:03:00;10.9;;;8.7;;
74741;SDS011;76291;48.288;16.314;2024-02-23T01:04:00;10.9;;;8.7;;
74741;SDS011;76291;48.288;16.314;2024-02-23T01:05:00;11.4;;;8.5;;
74741;SDS011;76291;48.288;16.314;2024-02-23T01:06:00;11.4;;;8.5;;
74741;SDS011;76291;48.288;16.314;2024-02-23T01:07:02;11.4;;;8.5;;
74741;SDS011;76291;48.288;16.314;2024-02-23T01:08:00;11.4;;;8.5;;
74741;SDS011;76291;48.288;16.314;2024-02-23T01:09:00;11.4;;;8.5;;
74741;SDS011;76291;48.288;16.314;2024-02-23T01:10:00;10.7;;;7.9;;
74741;SDS011;76291;48.288;16.314;2024-02-23T01:11:00;10.7;;;7.9;;
74741;SDS011;76291;48.288;16.314;2024-02-23T01:12:00;10.7;;;7.9;;
74741;SDS011;76291;48.288;16.314;2024-02-23T01:13:00;10.7;;;7.9;;
74741;SDS011;76291;48.288;16.314;2024-02-23T01:14:03;10.7;;;7.9;;
74741;SDS011;76291;48.288;16.314;2024-02-23T01:15:00;8.9;;;7.4;;
74741;SDS011;76291;48.288;16.314;2024-02-23T01:16:00;8.9;;;7.4;;
74741;SDS011;76291;48.288;16.314;2024-02-23T01:17:00;8.9;;;7.4;;
74741;SDS011;76291;48.288;16.314;2024-02-23T01:18:00;8.9;;;7.4;;
74741;SDS011;76291;48.288;16.314;2024-02-23T01:19:00;8.9;;;7.4;;
74741;SDS011;76291;48.288;16.314;2024-02-23T01:20:00;8.6;;;7.4;;
74741;SDS011;76291;48.288;16.314;2024-02-23T01:21:00;8.6;;;7.4;;
74741;SDS011;76291;48.288;16.314;2024-02-23T01:22:00;8.6;;;7.4;;
74741;SDS011;76291;48.288;16.314;2024-02-23T01:23:00;8.6;;;7.4;;
74741;SDS011;76291;48.288;16.314;2024-02-23T01:24:00;8.6;;;7.4;;
74741;SDS011;76291;48.288;16.314;2024-02-23T01:25:03;7.5;;;6.5;;
74741;SDS011;76291;48.288;16.314;2024-02-23T01:26:00;7.5;;;6.5;;
74741;SDS011;76291;48.288;16.314;2024-02-23T01:27:00;7.5;;;6.5;;
74741;SDS011;76291;48.288;16.314;2024-02-23T01:28:00;7.5;;;6.5;;
74741;SDS011;76291;48.288;16.314;2024-02-23T01:29:00;7.5;;;6.5;;
74741;SDS011;76291;48.288;16.314;2024-02-23T01:30:00;9.6;;;7.2;;
74741;SDS011;76291;48.288;16.314;2024-02-23T01:31:00;9.6;;;7.2;;
74741;SDS011;76291;48.288;16.314;2024-02-23T01:32:00;9.6;;;7.2;;
74741;SDS011;76291;48.288;16.314;2024-02-23T01:33:00;9.6;;;7.2;;
74741;SDS011;76291;48.288;16.314;2024-02-23T01:34:00;9.6;;;7.2;;
74741;SDS011;76291;48.288;16.314;2024-02-23T01:35:00;8.6;;;6.7;;
74741;SDS011;76291;48.288;16.314;2024-02-23T01:36:00;8.6;;;6.7;;
74741;SDS011;76291;48.288;16.314;2024-02-23T01:37:00;8.6;;;6.7;;
74741;SDS011;76291;48.288;16.314;2024-02-23T01:38:00;8.6;;;6.7;;
74741;SDS011;76291;48.288;16.314;2024-02-23T01:39:00;8.6;;;6.7;;
74741;SDS011;76291;48.288;16.314;2024-02-23T01:40:00;7.3;;;5.8;;
74741;SDS011;76291;48.288;16.314;2024-02-23T01:41:00;7.3;;;5.8;;
74741;SDS011;76291;48.288;16.314;2024-02-23T01:42:00;7.3;;;5.8;;
74741;SDS011;76291;48.288;16.314;2024-02-23T01:44:00;7.3;;;5.8;;
74741;SDS011;76291;48.288;16.314;2024-02-23T01:45:00;7.3;;;5.2;;
74741;SDS011;76291;48.288;16.314;2024-02-23T01:46:00;7.3;;;5.2;;
74741;SDS011;76291;48.288;16.314;2024-02-23T01:47:00;7.3;;;5.2;;
74741;SDS011;76291;48.288;16.314;2024-02-23T01:48:00;7.3;;;5.2;;
74741;SDS011;76291;48.288;16.314;2024-02-23T01:49:00;7.3;;;5.2;;
74741;SDS011;76291;48.288;16.314;2024-02-23T01:50:03;5.9;;;5.2;;
74741;SDS011;76291;48.288;16.314;2024-02-23T01:51:00;5.9;;;5.2;;
74741;SDS011;76291;48.288;16.314;2024-02-23T01:52:01;5.9;;;5.2;;
74741;SDS011;76291;48.288;16.314;2024-02-23T01:53:01;5.9;;;5.2;;
74741;SDS011;76291;48.288;16.314;2024-02-23T01:54:00;5.9;;;5.2;;
74741;SDS011;76291;48.288;16.314;2024-02-23T01:55:00;8.0;;;5.2;;
74741;SDS011;76291;48.288;16.314;2024-02-23T01:56:00;8.0;;;5.2;;
74741;SDS011;76291;48.288;16.314;2024-02-23T01:57:00;8.0;;;5.2;;
74741;SDS011;76291;48.288;16.314;2024-02-23T01:58:00;8.0;;;5.2;;
74741;SDS011;76291;48.288;16.314;2024-02-23T01:59:02;8.0;;;5.2;;
74741;SDS011;76291;48.288;16.314;2024-02-23T02:00:01;6.2;;;4.9;;
74741;SDS011;76291;48.288;16.314;2024-02-23T02:01:03;6.2;;;4.9;;
74741;SDS011;76291;48.288;16.314;2024-02-23T02:02:00;6.2;;;4.9;;
74741;SDS011;76291;48.288;16.314;2024-02-23T02:03:00;6.2;;;4.9;;
74741;SDS011;76291;48.288;16.314;2024-02-23T02:04:00;6.2;;;4.9;;
74741;SDS011;76291;48.288;16.314;2024-02-23T02:05:00;5.8;;;5.1;;
74741;SDS011;76291;48.288;16.314;2024-02-23T02:06:00;5.8;;;5.1;;
74741;SDS011;76291;48.288;16.314;2024-02-23T02:07:00;5.8;;;5.1;;
74741;SDS011;76291;48.288;16.314;2024-02-23T02:08:00;5.8;;;5.1;;
74741;SDS011;76291;48.288;16.314;2024-02-23T02:09:00;5.8;;;5.1;;
74741;SDS011;76291;48.288;16.314;2024-02-23T02:10:00;7.0;;;5.5;;
74741;SDS011;76291;48.288;16.314;2024-02-23T02:11:00;7.0;;;5.5;;
74741;SDS011;76291;48.288;16.314;2024-02-23T02:12:01;7.0;;;5.5;;
74741;SDS011;76291;48.288;16.314;2024-02-23T02:13:02;7.0;;;5.5;;
74741;SDS011;76291;48.288;16.314;2024-02-23T02:14:00;7.0;;;5.5;;
74741;SDS011;76291;48.288;16.314;2024-02-23T02:15:01;7.0;;;5.2;;
74741;SDS011;76291;48.288;16.314;2024-02-23T02:16:01;7.0;;;5.2;;
74741;SDS011;76291;48.288;16.314;2024-02-23T02:17:00;7.0;;;5.2;;
74741;SDS011;76291;48.288;16.314;2024-02-23T02:18:00;7.0;;;5.2;;
74741;SDS011;76291;48.288;16.314;2024-02-23T02:19:02;7.0;;;5.2;;
74741;SDS011;76291;48.288;16.314;2024-02-23T02:20:02;6.6;;;5.2;;
74741;SDS011;76291;48.288;16.314;2024-02-23T02:21:00;6.6;;;5.2;;
74741;SDS011;76291;48.288;16.314;2024-02-23T02:22:00;6.6;;;5.2;;
74741;SDS011;76291;48.288;16.314;2024-02-23T02:23:00;6.6;;;5.2;;
74741;SDS011;76291;48.288;16.314;2024-02-23T02:24:00;6.6;;;5.2;;
74741;SDS011;76291;48.288;16.314;2024-02-23T02:25:00;8.4;;;5.3;;
74741;SDS011;76291;48.288;16.314;2024-02-23T02:26:00;8.4;;;5.3;;
74741;SDS011;76291;48.288;16.314;2024-02-23T02:27:00;8.4;;;5.3;;
74741;SDS011;76291;48.288;16.314;2024-02-23T02:28:00;8.4;;;5.3;;
74741;SDS011;76291;48.288;16.314;2024-02-23T02:29:00;8.4;;;5.3;;
74741;SDS011;76291;48.288;16.314;2024-02-23T02:30:00;7.2;;;5.0;;
74741;SDS011;76291;48.288;16.314;2024-02-23T02:31:00;7.2;;;5.0;;
74741;SDS011;76291;48.288;16.314;2024-02-23T02:32:00;7.2;;;5.0;;
74741;SDS011;76291;48.288;16.314;2024-02-23T02:33:00;7.2;;;5.0;;
74741;SDS011;76291;48.288;16.314;2024-02-23T02:34:00;7.2;;;5.0;;
74741;SDS011;76291;48.288;16.314;2024-02-23T02:35:00;6.7;;;4.8;;
74741;SDS011;76291;48.288;16.314;2024-02-23T02:36:00;6.7;;;4.8;;
74741;SDS011;76291;48.288;16.314;2024-02-23T02:37:00;6.7;;;4.8;;
74741;SDS011;76291;48.288;16.314;2024-02-23T02:38:00;6.7;;;4.8;;
74741;SDS011;76291;48.288;16.314;2024-02-23T02:39:00;6.7;;;4.8;;
74741;SDS011;76291;48.288;16.314;2024-02-23T02:40:00;8.0;;;5.4;;
74741;SDS011;76291;48.288;16.314;2024-02-23T02:41:01;8.0;;;5.4;;
74741;SDS011;76291;48.288;16.314;2024-02-23T02:42:00;8.0;;;5.4;;
74741;SDS011;76291;48.288;16.314;2024-02-23T02:43:00;8.0;;;5.4;;
74741;SDS011;76291;48.288;16.314;2024-02-23T02:44:00;8.0;;;5.4;;
74741;SDS011;76291;48.288;16.314;2024-02-23T02:45:00;6.4;;;5.5;;
74741;SDS011;76291;48.288;16.314;2024-02-23T02:46:00;6.4;;;5.5;;
74741;SDS011;76291;48.288;16.314;2024-02-23T02:47:00;6.4;;;5.5;;
74741;SDS011;76291;48.288;16.314;2024-02-23T02:48:00;6.4;;;5.5;;
74741;SDS011;76291;48.288;16.314;2024-02-23T02:49:00;6.4;;;5.5;;
74741;SDS011;76291;48.288;16.314;2024-02-23T02:50:00;6.7;;;5.4;;
74741;SDS011;76291;48.288;16.314;2024-02-23T02:51:00;6.7;;;5.4;;
74741;SDS011;76291;48.288;16.314;2024-02-23T02:52:00;6.7;;;5.4;;
74741;SDS011;76291;48.288;16.314;2024-02-23T02:53:00;6.7;;;5.4;;
74741;SDS011;76291;48.288;16.314;2024-02-23T02:54:00;6.7;;;5.4;;
74741;SDS011;76291;48.288;16.314;2024-02-23T02:55:00;9.3;;;6.0;;
74741;SDS011;76291;48.288;16.314;2024-02-23T02:56:00;9.3;;;6.0;;
74741;SDS011;76291;48.288;16.314;2024-02-23T02:57:00;9.3;;;6.0;;
74741;SDS011;76291;48.288;16.314;2024-02-23T02:58:00;9.3;;;6.0;;
74741;SDS011;76291;48.288;16.314;2024-02-23T02:59:00;9.3;;;6.0;;
74741;SDS011;76291;48.288;16.314;2024-02-23T03:00:00;8.3;;;5.5;;
74741;SDS011;76291;48.288;16.314;2024-02-23T03:01:00;8.3;;;5.5;;
74741;SDS011;76291;48.288;16.314;2024-02-23T03:02:00;8.3;;;5.5;;
74741;SDS011;76291;48.288;16.314;2024-02-23T03:03:00;8.3;;;5.5;;
74741;SDS011;76291;48.288;16.314;2024-02-23T03:04:00;8.3;;;5.5;;
74741;SDS011;76291;48.288;16.314;2024-02-23T03:05:00;6.0;;;5.0;;
74741;SDS011;76291;48.288;16.314;2024-02-23T03:06:00;6.0;;;5.0;;
74741;SDS011;76291;48.288;16.314;2024-02-23T03:07:00;6.0;;;5.0;;
74741;SDS011;76291;48.288;16.314;2024-02-23T03:08:00;6.0;;;5.0;;
74741;SDS011;76291;48.288;16.314;2024-02-23T03:09:00;6.0;;;5.0;;
74741;SDS011;76291;48.288;16.314;2024-02-23T03:10:00;8.2;;;5.4;;
74741;SDS011;76291;48.288;16.314;2024-02-23T03:11:00;8.2;;;5.4;;
74741;SDS011;76291;48.288;16.314;2024-02-23T03:12:00;8.2;;;5.4;;
74741;SDS011;76291;48.288;16.314;2024-02-23T03:13:06;8.2;;;5.4;;
74741;SDS011;76291;48.288;16.314;2024-02-23T03:14:00;8.2;;;5.4;;
74741;SDS011;76291;48.288;16.314;2024-02-23T03:15:00;6.0;;;4.6;;
74741;SDS011;76291;48.288;16.314;2024-02-23T03:16:03;6.0;;;4.6;;
74741;SDS011;76291;48.288;16.314;2024-02-23T03:17:00;6.0;;;4.6;;
74741;SDS011;76291;48.288;16.314;2024-02-23T03:18:00;6.0;;;4.6;;
74741;SDS011;76291;48.288;16.314;2024-02-23T03:19:00;6.0;;;4.6;;
74741;SDS011;76291;48.288;16.314;2024-02-23T03:20:00;7.1;;;4.8;;
74741;SDS011;76291;48.288;16.314;2024-02-23T03:21:01;7.1;;;4.8;;
74741;SDS011;76291;48.288;16.314;2024-02-23T03:22:00;7.1;;;4.8;;
74741;SDS011;76291;48.288;16.314;2024-02-23T03:23:00;7.1;;;4.8;;
74741;SDS011;76291;48.288;16.314;2024-02-23T03:24:00;7.1;;;4.8;;
74741;SDS011;76291;48.288;16.314;2024-02-23T03:25:01;7.1;;;4.8;;
74741;SDS011;76291;48.288;16.314;2024-02-23T03:26:00;7.1;;;4.8;;
74741;SDS011;76291;48.288;16.314;2024-02-23T03:27:00;7.1;;;4.8;;
74741;SDS011;76291;48.288;16.314;2024-02-23T03:28:00;7.1;;;4.8;;
74741;SDS011;76291;48.288;16.314;2024-02-23T03:29:00;7.1;;;4.8;;
74741;SDS011;76291;48.288;16.314;2024-02-23T03:30:00;7.8;;;4.8;;
74741;SDS011;76291;48.288;16.314;2024-02-23T03:31:00;7.8;;;4.8;;
74741;SDS011;76291;48.288;16.314;2024-02-23T03:32:00;7.8;;;4.8;;
74741;SDS011;76291;48.288;16.314;2024-02-23T03:33:00;7.8;;;4.8;;
74741;SDS011;76291;48.288;16.314;2024-02-23T03:34:00;7.8;;;4.8;;
74741;SDS011;76291;48.288;16.314;2024-02-23T03:35:00;8.3;;;5.2;;
74741;SDS011;76291;48.288;16.314;2024-02-23T03:36:00;8.3;;;5.2;;
74741;SDS011;76291;48.288;16.314;2024-02-23T03:37:00;8.3;;;5.2;;
74741;SDS011;76291;48.288;16.314;2024-02-23T03:38:00;8.3;;;5.2;;
74741;SDS011;76291;48.288;16.314;2024-02-23T03:39:01;8.3;;;5.2;;
74741;SDS011;76291;48.288;16.314;2024-02-23T03:40:00;6.5;;;4.8;;
74741;SDS011;76291;48.288;16.314;2024-02-23T03:41:00;6.5;;;4.8;;
74741;SDS011;76291;48.288;16.314;2024-02-23T03:42:03;6.5;;;4.8;;
74741;SDS011;76291;48.288;16.314;2024-02-23T03:43:00;6.5;;;4.8;;
74741;SDS011;76291;48.288;16.314;2024-02-23T03:44:00;6.5;;;4.8;;
74741;SDS011;76291;48.288;16.314;2024-02-23T03:45:00;7.3;;;4.9;;
74741;SDS011;76291;48.288;16.314;2024-02-23T03:46:00;7.3;;;4.9;;
74741;SDS011;76291;48.288;16.314;2024-02-23T03:47:00;7.3;;;4.9;;
74741;SDS011;76291;48.288;16.314;2024-02-23T03:48:00;7.3;;;4.9;;
74741;SDS011;76291;48.288;16.314;2024-02-23T03:49:00;7.3;;;4.9;;
74741;SDS011;76291;48.288;16.314;2024-02-23T03:50:00;10.2;;;8.3;;
74741;SDS011;76291;48.288;16.314;2024-02-23T03:51:00;10.2;;;8.3;;
74741;SDS011;76291;48.288;16.314;2024-02-23T03:52:00;10.2;;;8.3;;
74741;SDS011;76291;48.288;16.314;2024-02-23T03:53:00;10.2;;;8.3;;
74741;SDS011;76291;48.288;16.314;2024-02-23T03:54:00;10.2;;;8.3;;
74741;SDS011;76291;48.288;16.314;2024-02-23T03:55:00;10.2;;;8.1;;
74741;SDS011;76291;48.288;16.314;2024-02-23T03:56:00;10.2;;;8.1;;
74741;SDS011;76291;48.288;16.314;2024-02-23T03:57:00;10.2;;;8.1;;
74741;SDS011;76291;48.288;16.314;2024-02-23T03:58:00;10.2;;;8.1;;
74741;SDS011;76291;48.288;16.314;2024-02-23T03:59:00;10.2;;;8.1;;
74741;SDS011;76291;48.288;16.314;2024-02-23T04:00:00;8.8;;;7.3;;
74741;SDS011;76291;48.288;16.314;2024-02-23T04:01:00;8.8;;;7.3;;
74741;SDS011;76291;48.288;16.314;2024-02-23T04:02:00;8.8;;;7.3;;
74741;SDS011;76291;48.288;16.314;2024-02-23T04:03:00;8.8;;;7.3;;
74741;SDS011;76291;48.288;16.314;2024-02-23T04:04:00;8.8;;;7.3;;
74741;SDS011;76291;48.288;16.314;2024-02-23T04:05:00;12.2;;;10.1;;
74741;SDS011;76291;48.288;16.314;2024-02-23T04:06:00;12.2;;;10.1;;
74741;SDS011;76291;48.288;16.314;2024-02-23T04:07:00;12.2;;;10.1;;
74741;SDS011;76291;48.288;16.314;2024-02-23T04:08:09;12.2;;;10.1;;
74741;SDS011;76291;48.288;16.314;2024-02-23T04:09:00;12.2;;;10.1;;
74741;SDS011;76291;48.288;16.314;2024-02-23T04:10:00;17.4;;;14.8;;
74741;SDS011;76291;48.288;16.314;2024-02-23T04:11:00;17.4;;;14.8;;
74741;SDS011;76291;48.288;16.314;2024-02-23T04:12:00;17.4;;;14.8;;
74741;SDS011;76291;48.288;16.314;2024-02-23T04:13:00;17.4;;;14.8;;
74741;SDS011;76291;48.288;16.314;2024-02-23T04:14:00;17.4;;;14.8;;
74741;SDS011;76291;48.288;16.314;2024-02-23T04:15:00;20.1;;;16.7;;
74741;SDS011;76291;48.288;16.314;2024-02-23T04:16:00;20.1;;;16.7;;
74741;SDS011;76291;48.288;16.314;2024-02-23T04:17:00;20.1;;;16.7;;
74741;SDS011;76291;48.288;16.314;2024-02-23T04:18:00;20.1;;;16.7;;
74741;SDS011;76291;48.288;16.314;2024-02-23T04:19:00;20.1;;;16.7;;
74741;SDS011;76291;48.288;16.314;2024-02-23T04:20:05;18.8;;;16.2;;
74741;SDS011;76291;48.288;16.314;2024-02-23T04:21:00;18.8;;;16.2;;
74741;SDS011;76291;48.288;16.314;2024-02-23T04:22:00;18.8;;;16.2;;
74741;SDS011;76291;48.288;16.314;2024-02-23T04:23:00;18.8;;;16.2;;
74741;SDS011;76291;48.288;16.314;2024-02-23T04:24:00;18.8;;;16.2;;
74741;SDS011;76291;48.288;16.314;2024-02-23T04:25:00;17.0;;;14.4;;
74741;SDS011;76291;48.288;16.314;2024-02-23T04:26:00;17.0;;;14.4;;
74741;SDS011;76291;48.288;16.314;2024-02-23T04:27:00;17.0;;;14.4;;
74741;SDS011;76291;48.288;16.314;2024-02-23T04:28:01;17.0;;;14.4;;
74741;SDS011;76291;48.288;16.314;2024-02-23T04:29:00;17.0;;;14.4;;
74741;SDS011;76291;48.288;16.314;2024-02-23T04:30:00;13.9;;;11.7;;
74741;SDS011;76291;48.288;16.314;2024-02-23T04:31:00;13.9;;;11.7;;
74741;SDS011;76291;48.288;16.314;2024-02-23T04:32:01;13.9;;;11.7;;
74741;SDS011;76291;48.288;16.314;2024-02-23T04:33:00;13.9;;;11.7;;
74741;SDS011;76291;48.288;16.314;2024-02-23T04:34:00;13.9;;;11.7;;
74741;SDS011;76291;48.288;16.314;2024-02-23T04:35:00;12.2;;;10.3;;
74741;SDS011;76291;48.288;16.314;2024-02-23T04:36:00;12.2;;;10.3;;
74741;SDS011;76291;48.288;16.314;2024-02-23T04:37:00;12.2;;;10.3;;
74741;SDS011;76291;48.288;16.314;2024-02-23T04:38:03;12.2;;;10.3;;
74741;SDS011;76291;48.288;16.314;2024-02-23T04:39:00;12.2;;;10.3;;
74741;SDS011;76291;48.288;16.314;2024-02-23T04:40:00;11.1;;;8.9;;
74741;SDS011;76291;48.288;16.314;2024-02-23T04:41:03;11.1;;;8.9;;
74741;SDS011;76291;48.288;16.314;2024-02-23T04:42:00;11.1;;;8.9;;
74741;SDS011;76291;48.288;16.314;2024-02-23T04:43:00;11.1;;;8.9;;
74741;SDS011;76291;48.288;16.314;2024-02-23T04:44:00;11.1;;;8.9;;
74741;SDS011;76291;48.288;16.314;2024-02-23T04:45:00;8.7;;;7.2;;
74741;SDS011;76291;48.288;16.314;2024-02-23T04:46:00;8.7;;;7.2;;
74741;SDS011;76291;48.288;16.314;2024-02-23T04:47:00;8.7;;;7.2;;
74741;SDS011;76291;48.288;16.314;2024-02-23T04:48:00;8.7;;;7.2;;
74741;SDS011;76291;48.288;16.314;2024-02-23T04:49:03;8.7;;;7.2;;
74741;SDS011;76291;48.288;16.314;2024-02-23T04:50:00;7.0;;;6.3;;
74741;SDS011;76291;48.288;16.314;2024-02-23T04:51:00;7.0;;;6.3;;
74741;SDS011;76291;48.288;16.314;2024-02-23T04:52:00;7.0;;;6.3;;
74741;SDS011;76291;48.288;16.314;2024-02-23T04:53:00;7.0;;;6.3;;
74741;SDS011;76291;48.288;16.314;2024-02-23T04:54:00;7.0;;;6.3;;
74741;SDS011;76291;48.288;16.314;2024-02-23T04:55:00;6.3;;;5.2;;
74741;SDS011;76291;48.288;16.314;2024-02-23T04:56:00;6.3;;;5.2;;
74741;SDS011;76291;48.288;16.314;2024-02-23T04:57:00;6.3;;;5.2;;
74741;SDS011;76291;48.288;16.314;2024-02-23T04:58:00;6.3;;;5.2;;
74741;SDS011;76291;48.288;16.314;2024-02-23T04:59:00;6.3;;;5.2;;
74741;SDS011;76291;48.288;16.314;2024-02-23T05:00:00;6.9;;;4.9;;
74741;SDS011;76291;48.288;16.314;2024-02-23T05:01:00;6.9;;;4.9;;
74741;SDS011;76291;48.288;16.314;2024-02-23T05:02:00;6.9;;;4.9;;
74741;SDS011;76291;48.288;16.314;2024-02-23T05:03:00;6.9;;;4.9;;
74741;SDS011;76291;48.288;16.314;2024-02-23T05:04:00;6.9;;;4.9;;
74741;SDS011;76291;48.288;16.314;2024-02-23T05:05:01;4.2;;;3.5;;
74741;SDS011;76291;48.288;16.314;2024-02-23T05:06:00;4.2;;;3.5;;
74741;SDS011;76291;48.288;16.314;2024-02-23T05:07:00;4.2;;;3.5;;
74741;SDS011;76291;48.288;16.314;2024-02-23T05:08:00;4.2;;;3.5;;
74741;SDS011;76291;48.288;16.314;2024-02-23T05:09:00;4.2;;;3.5;;
74741;SDS011;76291;48.288;16.314;2024-02-23T05:10:00;3.3;;;2.9;;
74741;SDS011;76291;48.288;16.314;2024-02-23T05:11:00;3.3;;;2.9;;
74741;SDS011;76291;48.288;16.314;2024-02-23T05:12:00;3.3;;;2.9;;
74741;SDS011;76291;48.288;16.314;2024-02-23T05:13:00;3.3;;;2.9;;
74741;SDS011;76291;48.288;16.314;2024-02-23T05:14:00;3.3;;;2.9;;
74741;SDS011;76291;48.288;16.314;2024-02-23T05:15:00;3.8;;;2.7;;
74741;SDS011;76291;48.288;16.314;2024-02-23T05:16:00;3.8;;;2.7;;
74741;SDS011;76291;48.288;16.314;2024-02-23T05:17:00;3.8;;;2.7;;
74741;SDS011;76291;48.288;16.314;2024-02-23T05:18:00;3.8;;;2.7;;
74741;SDS011;76291;48.288;16.314;2024-02-23T05:19:00;3.8;;;2.7;;
74741;SDS011;76291;48.288;16.314;2024-02-23T05:20:00;4.1;;;2.6;;
74741;SDS011;76291;48.288;16.314;2024-02-23T05:21:00;4.1;;;2.6;;
74741;SDS011;76291;48.288;16.314;2024-02-23T05:22:00;4.1;;;2.6;;
74741;SDS011;76291;48.288;16.314;2024-02-23T05:23:00;4.1;;;2.6;;
74741;SDS011;76291;48.288;16.314;2024-02-23T05:24:00;4.1;;;2.6;;
74741;SDS011;76291;48.288;16.314;2024-02-23T05:25:00;2.2;;;2.0;;
74741;SDS011;76291;48.288;16.314;2024-02-23T05:26:00;2.2;;;2.0;;
74741;SDS011;76291;48.288;16.314;2024-02-23T05:27:00;2.2;;;2.0;;
74741;SDS011;76291;48.288;16.314;2024-02-23T05:28:00;2.2;;;2.0;;
74741;SDS011;76291;48.288;16.314;2024-02-23T05:29:00;2.2;;;2.0;;
74741;SDS011;76291;48.288;16.314;2024-02-23T05:30:00;2.8;;;1.9;;
74741;SDS011;76291;48.288;16.314;2024-02-23T05:31:03;2.8;;;1.9;;
74741;SDS011;76291;48.288;16.314;2024-02-23T05:32:00;2.8;;;1.9;;
74741;SDS011;76291;48.288;16.314;2024-02-23T05:33:00;2.8;;;1.9;;
74741;SDS011;76291;48.288;16.314;2024-02-23T05:34:00;2.8;;;1.9;;
74741;SDS011;76291;48.288;16.314;2024-02-23T05:35:00;2.1;;;1.7;;
74741;SDS011;76291;48.288;16.314;2024-02-23T05:36:00;2.1;;;1.7;;
74741;SDS011;76291;48.288;16.314;2024-02-23T05:37:00;2.1;;;1.7;;
74741;SDS011;76291;48.288;16.314;2024-02-23T05:38:00;2.1;;;1.7;;
74741;SDS011;76291;48.288;16.314;2024-02-23T05:39:00;2.1;;;1.7;;
74741;SDS011;76291;48.288;16.314;2024-02-23T05:40:00;1.8;;;1.5;;
74741;SDS011;76291;48.288;16.314;2024-02-23T05:41:00;1.8;;;1.5;;
74741;SDS011;76291;48.288;16.314;2024-02-23T05:42:00;1.8;;;1.5;;
74741;SDS011;76291;48.288;16.314;2024-02-23T05:43:00;1.8;;;1.5;;
74741;SDS011;76291;48.288;16.314;2024-02-23T05:44:00;1.8;;;1.5;;
74741;SDS011;76291;48.288;16.314;2024-02-23T05:45:00;2.2;;;1.6;;
74741;SDS011;76291;48.288;16.314;2024-02-23T05:46:00;2.2;;;1.6;;
74741;SDS011;76291;48.288;16.314;2024-02-23T05:47:00;2.2;;;1.6;;
74741;SDS011;76291;48.288;16.314;2024-02-23T05:48:00;2.2;;;1.6;;
74741;SDS011;76291;48.288;16.314;2024-02-23T05:49:01;2.2;;;1.6;;
74741;SDS011;76291;48.288;16.314;2024-02-23T05:50:00;2.6;;;1.7;;
74741;SDS011;76291;48.288;16.314;2024-02-23T05:51:00;2.6;;;1.7;;
74741;SDS011;76291;48.288;16.314;2024-02-23T05:52:00;2.6;;;1.7;;
74741;SDS011;76291;48.288;16.314;2024-02-23T05:53:02;2.6;;;1.7;;
74741;SDS011;76291;48.288;16.314;2024-02-23T05:54:00;2.6;;;1.7;;
74741;SDS011;76291;48.288;16.314;2024-02-23T05:55:03;1.8;;;1.1;;
74741;SDS011;76291;48.288;16.314;2024-02-23T05:56:00;1.8;;;1.1;;
74741;SDS011;76291;48.288;16.314;2024-02-23T05:57:00;1.8;;;1.1;;
74741;SDS011;76291;48.288;16.314;2024-02-23T05:58:00;1.8;;;1.1;;
74741;SDS011;76291;48.288;16.314;2024-02-23T05:59:00;1.8;;;1.1;;
74741;SDS011;76291;48.288;16.314;2024-02-23T06:00:00;2.4;;;1.2;;
74741;SDS011;76291;48.288;16.314;2024-02-23T06:01:00;2.4;;;1.2;;
74741;SDS011;76291;48.288;16.314;2024-02-23T06:02:00;2.4;;;1.2;;
74741;SDS011;76291;48.288;16.314;2024-02-23T06:03:00;2.4;;;1.2;;
74741;SDS011;76291;48.288;16.314;2024-02-23T06:04:00;2.4;;;1.2;;
74741;SDS011;76291;48.288;16.314;2024-02-23T06:05:00;2.4;;;1.4;;
74741;SDS011;76291;48.288;16.314;2024-02-23T06:06:00;2.4;;;1.4;;